首页
METAR-TAF:

METAR-TAF

机场 :

大加那利机场

大加那利岛, 西班牙

纬度: 27-56N, 经度: 015-23W, 海拔: 23米

当前天气观测

该预报发布于30分钟前的05:30 UTC
风速10节,风向,在北转西北东北之间变化
温度 23°C
湿度 36%
气压 1017 hPa
能見度: 8000

METAR: GCLP 230530Z 36010KT 330V050 8000 NSC 23/07 Q1017 NOSIG

时间: 06:00 (06:00 UTC)

预报

该预报发布于4小时和0分钟前的02:00 UTC
预报有效从23日的 03点(UTC)到 24日的 03点(UTC)
风速12节,风向
能見度: 7000
成为
从 23日的 07点(UTC)到 23日的 09点(UTC)
风速5节,风向
几率 40% :
短暂存在
从 23日的 03点(UTC)到 23日的 19点(UTC)
能見度: 3000
几率 30% :
短暂存在
从 23日的 09点(UTC)到 23日的 18点(UTC)
能見度: 0900

TAF: GCLP 230200Z 2303/2403 35012KT 7000 NSC TX25/2315Z TN15/2306Z BECMG 2307/2309 17005KT PROB40 TEMPO 2303/2319 3000 HZ PROB30 TEMPO 2309/2318 0900 HZ

超过4000个机场的气象观测和天气预报(METAR&TAF报告)。

可查询的气象台以黄色和红色小点在地图上表示。

将鼠标移到小点上方,可查看气象台名称。

然后点击查看天气观测和预报。

如需切换地图:点击带黑十字的绿色按钮放大地图;点击带横线的绿色按钮缩小地图;或者点击绿色箭头查看邻近地区的地图。


METAR-TAF: